createdAt,value
2017-09-05T00:00:08.635Z,214.40
2017-09-05T00:01:08.611Z,135.00
2017-09-05T00:02:08.589Z,159.10
2017-09-05T00:03:08.566Z,377.80
2017-09-05T00:04:08.543Z,319.50
2017-09-05T00:05:08.522Z,444.10
2017-09-05T00:06:08.499Z,534.50
2017-09-05T00:07:08.475Z,496.70
2017-09-05T00:08:08.457Z,465.60
2017-09-05T00:09:08.434Z,423.00
2017-09-05T00:10:08.412Z,392.10
2017-09-05T00:11:08.388Z,351.60
2017-09-05T00:12:08.363Z,303.90
2017-09-05T00:13:08.342Z,276.90
2017-09-05T00:14:08.319Z,255.70
2017-09-05T00:15:08.299Z,151.00
2017-09-05T00:16:08.277Z,126.30
2017-09-05T00:17:08.254Z,148.90
2017-09-05T00:18:08.229Z,148.50
2017-09-05T00:19:08.210Z,148.40
2017-09-05T00:20:08.185Z,153.20
2017-09-05T00:21:08.167Z,137.60
2017-09-05T00:22:08.140Z,114.70
2017-09-05T00:23:08.120Z,110.60
2017-09-05T00:24:08.098Z,104.10
2017-09-05T00:25:08.073Z,103.30
2017-09-05T00:26:08.054Z,103.80
2017-09-05T00:27:08.029Z,96.20
2017-09-05T00:28:08.006Z,100.40
2017-09-05T00:29:07.986Z,95.90
2017-09-05T00:30:07.962Z,93.60
2017-09-05T00:31:07.942Z,95.50
2017-09-05T00:32:07.921Z,93.40
2017-09-05T00:33:07.896Z,89.10
2017-09-05T00:34:07.872Z,88.00
2017-09-05T00:35:07.853Z,84.10
2017-09-05T00:36:07.833Z,79.80
2017-09-05T00:37:07.807Z,77.20
2017-09-05T00:38:07.788Z,75.30
2017-09-05T00:39:07.792Z,72.50
2017-09-05T00:40:07.744Z,71.50
2017-09-05T00:41:07.718Z,70.20
2017-09-05T00:42:07.700Z,66.70
2017-09-05T00:43:07.678Z,64.00
2017-09-05T00:44:07.663Z,63.00
2017-09-05T00:45:07.633Z,60.20
2017-09-05T00:46:07.608Z,74.00
2017-09-05T00:47:07.587Z,59.60
2017-09-05T00:48:07.568Z,57.00
2017-09-05T00:49:07.544Z,55.10
2017-09-05T00:50:07.519Z,55.60
2017-09-05T00:51:07.496Z,55.00
2017-09-05T00:52:07.475Z,50.80
2017-09-05T00:53:07.453Z,49.00
2017-09-05T00:54:07.433Z,47.20
2017-09-05T00:55:07.408Z,46.30
2017-09-05T00:56:07.391Z,47.00
2017-09-05T00:57:07.369Z,43.30
2017-09-05T00:58:07.341Z,43.90
2017-09-05T00:59:07.320Z,45.00
2017-09-05T01:00:07.299Z,44.50
2017-09-05T01:01:07.279Z,42.30
2017-09-05T01:02:07.253Z,39.00
2017-09-05T01:03:07.233Z,38.70
2017-09-05T01:04:07.209Z,39.10
2017-09-05T01:05:07.189Z,35.30
2017-09-05T01:06:07.164Z,34.00
2017-09-05T01:07:07.147Z,33.70
2017-09-05T01:08:07.120Z,33.70
2017-09-05T01:09:07.099Z,33.50
2017-09-05T01:10:07.078Z,32.60
2017-09-05T01:11:07.056Z,32.40
2017-09-05T01:12:07.034Z,32.20
2017-09-05T01:13:07.013Z,30.70
2017-09-05T01:14:06.991Z,29.50
2017-09-05T01:15:06.966Z,30.10
2017-09-05T01:16:06.947Z,28.40
2017-09-05T01:17:06.926Z,27.20
2017-09-05T01:18:06.899Z,26.30
2017-09-05T01:19:06.878Z,26.00
2017-09-05T01:20:06.855Z,25.90
2017-09-05T01:21:06.835Z,23.70
2017-09-05T01:22:06.814Z,25.30
2017-09-05T01:23:06.792Z,25.30
2017-09-05T01:24:06.770Z,25.40
2017-09-05T01:25:06.752Z,26.80
2017-09-05T01:26:06.724Z,23.60
2017-09-05T01:27:06.704Z,22.40
2017-09-05T01:28:06.683Z,21.90
2017-09-05T01:29:06.689Z,21.40
2017-09-05T01:30:06.645Z,19.90
2017-09-05T01:31:06.616Z,19.20
2017-09-05T01:32:06.592Z,19.30
2017-09-05T01:33:06.573Z,18.70
2017-09-05T01:34:06.548Z,20.20
2017-09-05T01:35:06.528Z,17.10
2017-09-05T01:36:06.502Z,17.10
2017-09-05T01:37:06.482Z,19.30
2017-09-05T01:38:06.461Z,16.80
2017-09-05T01:39:06.437Z,17.20
2017-09-05T01:40:06.416Z,15.30
2017-09-05T01:41:06.390Z,16.20
2017-09-05T01:42:06.368Z,15.50
2017-09-05T01:43:06.349Z,15.70
2017-09-05T01:44:06.327Z,15.10
2017-09-05T01:45:06.306Z,16.20
2017-09-05T01:46:06.281Z,14.60
2017-09-05T01:47:06.257Z,15.30
2017-09-05T01:48:06.238Z,13.80
2017-09-05T01:49:06.213Z,14.30
2017-09-05T01:50:06.189Z,14.10
2017-09-05T01:51:06.170Z,13.90
2017-09-05T01:52:06.150Z,13.10
2017-09-05T01:53:06.128Z,12.80
2017-09-05T01:54:06.102Z,13.30
2017-09-05T01:55:06.082Z,13.60
2017-09-05T01:56:06.062Z,12.40
2017-09-05T01:57:06.037Z,12.70
2017-09-05T01:58:06.013Z,11.70
2017-09-05T01:59:05.993Z,11.30
2017-09-05T02:00:05.980Z,11.30
2017-09-05T02:01:05.947Z,11.60
2017-09-05T02:02:05.929Z,10.50
2017-09-05T02:03:05.905Z,10.80
2017-09-05T02:04:05.879Z,9.70
2017-09-05T02:05:05.861Z,10.00
2017-09-05T02:06:05.838Z,9.80
2017-09-05T02:07:05.813Z,9.70
2017-09-05T02:08:05.794Z,10.10
2017-09-05T02:09:05.775Z,9.40
2017-09-05T02:10:05.747Z,8.80
2017-09-05T02:11:05.726Z,9.10
2017-09-05T02:12:05.703Z,9.00
2017-09-05T02:13:05.682Z,8.40
2017-09-05T02:14:05.658Z,7.80
2017-09-05T02:15:05.637Z,8.30
2017-09-05T02:16:05.614Z,7.20
2017-09-05T02:17:05.593Z,8.20
2017-09-05T02:18:05.573Z,8.00
2017-09-05T02:19:05.550Z,7.70
2017-09-05T02:20:05.527Z,7.10
2017-09-05T02:21:05.502Z,7.00
2017-09-05T02:22:05.484Z,7.70
2017-09-05T02:23:05.462Z,7.10
2017-09-05T02:24:05.440Z,7.30
2017-09-05T02:25:05.417Z,7.20
2017-09-05T02:26:05.392Z,6.90
2017-09-05T02:27:05.370Z,6.80
2017-09-05T02:28:05.351Z,6.90
2017-09-05T02:29:05.330Z,6.10
2017-09-05T02:30:05.307Z,6.30
2017-09-05T02:31:05.284Z,6.00
2017-09-05T02:32:05.260Z,5.60
2017-09-05T02:33:05.235Z,5.50
2017-09-05T02:34:05.214Z,5.90
2017-09-05T02:35:05.195Z,5.50
2017-09-05T02:36:05.174Z,5.80
2017-09-05T02:37:05.151Z,5.70
2017-09-05T02:38:05.129Z,5.60
2017-09-05T02:39:05.107Z,5.00
2017-09-05T02:40:05.085Z,5.00
2017-09-05T02:41:05.059Z,5.40
2017-09-05T02:42:05.037Z,5.30
2017-09-05T02:43:05.022Z,5.00
2017-09-05T02:44:04.996Z,5.20
2017-09-05T02:45:04.970Z,4.80
2017-09-05T02:46:04.947Z,4.70
2017-09-05T02:47:04.926Z,5.30
2017-09-05T02:48:04.902Z,5.00
2017-09-05T02:49:04.883Z,5.10
2017-09-05T02:50:04.858Z,4.70
2017-09-05T02:51:04.836Z,4.60
2017-09-05T02:52:04.816Z,4.80
2017-09-05T02:53:04.790Z,4.50
2017-09-05T02:54:04.772Z,5.00
2017-09-05T02:55:04.746Z,4.30
2017-09-05T02:56:04.727Z,4.20
2017-09-05T02:57:04.704Z,4.40
2017-09-05T02:58:04.681Z,4.50
2017-09-05T02:59:04.658Z,4.30
2017-09-05T03:00:04.636Z,4.20
2017-09-05T03:01:04.616Z,4.60
2017-09-05T03:02:04.590Z,4.90
2017-09-05T03:03:04.572Z,4.10
2017-09-05T03:04:04.546Z,4.80
2017-09-05T03:05:04.528Z,3.80
2017-09-05T03:06:04.504Z,4.20
2017-09-05T03:07:04.490Z,4.60
2017-09-05T03:08:04.457Z,4.30
2017-09-05T03:09:04.436Z,4.40
2017-09-05T03:10:04.412Z,4.10
2017-09-05T03:11:04.389Z,4.50
2017-09-05T03:12:04.370Z,4.00
2017-09-05T03:13:04.349Z,4.30
2017-09-05T03:14:04.323Z,3.90
2017-09-05T03:15:04.304Z,3.40
2017-09-05T03:16:04.285Z,4.20
2017-09-05T03:17:04.259Z,3.40
2017-09-05T03:18:04.234Z,4.20
2017-09-05T03:19:04.211Z,3.80
2017-09-05T03:20:04.190Z,3.70
2017-09-05T03:21:04.169Z,3.60
2017-09-05T03:22:04.147Z,3.50
2017-09-05T03:23:04.137Z,3.60
2017-09-05T03:24:04.101Z,3.40
2017-09-05T03:25:04.081Z,3.60
2017-09-05T03:26:04.056Z,3.20
2017-09-05T03:27:04.034Z,3.70
2017-09-05T03:28:04.013Z,3.90
2017-09-05T03:29:03.994Z,3.70
2017-09-05T03:30:03.971Z,3.50
2017-09-05T03:31:03.948Z,3.50
2017-09-05T03:32:03.927Z,3.80
2017-09-05T03:33:03.902Z,4.10
2017-09-05T03:34:03.879Z,3.50
2017-09-05T03:35:03.855Z,3.90
2017-09-05T03:36:03.835Z,3.60
2017-09-05T03:37:03.812Z,3.70
2017-09-05T03:38:03.791Z,3.60
2017-09-05T03:39:03.767Z,4.00
2017-09-05T03:40:03.747Z,3.10
2017-09-05T03:41:03.721Z,3.50
2017-09-05T03:42:03.699Z,3.40
2017-09-05T03:43:03.677Z,3.20
2017-09-05T03:44:03.655Z,3.60
2017-09-05T03:45:03.633Z,3.80
2017-09-05T03:46:03.611Z,3.60
2017-09-05T03:47:03.588Z,3.30
2017-09-05T03:48:03.568Z,3.30
2017-09-05T03:49:03.546Z,3.20
2017-09-05T03:50:03.521Z,3.40
2017-09-05T03:51:03.498Z,3.60
2017-09-05T03:52:03.480Z,4.00
2017-09-05T03:53:03.454Z,3.80
2017-09-05T03:54:03.433Z,3.70
2017-09-05T03:55:03.409Z,3.70
2017-09-05T03:56:03.391Z,3.90
2017-09-05T03:57:03.369Z,3.80
2017-09-05T03:58:03.342Z,4.00
2017-09-05T03:59:03.324Z,4.00
2017-09-05T04:00:03.302Z,4.20
2017-09-05T04:01:03.278Z,4.10
2017-09-05T04:02:03.283Z,4.20
2017-09-05T04:03:03.236Z,3.80
2017-09-05T04:04:03.213Z,4.40
2017-09-05T04:05:03.189Z,4.30
2017-09-05T04:06:03.166Z,4.10
2017-09-05T04:07:03.142Z,4.30
2017-09-05T04:08:03.120Z,4.70
2017-09-05T04:09:03.098Z,4.20
2017-09-05T04:10:03.081Z,4.30
2017-09-05T04:11:03.055Z,4.60
2017-09-05T04:12:03.035Z,4.50
2017-09-05T04:13:03.010Z,4.50
2017-09-05T04:14:02.989Z,4.80
2017-09-05T04:15:02.969Z,4.70
2017-09-05T04:16:02.942Z,4.80
2017-09-05T04:17:02.923Z,4.60
2017-09-05T04:18:02.898Z,4.60
2017-09-05T04:19:02.875Z,4.60
2017-09-05T04:20:02.861Z,5.00
2017-09-05T04:21:02.830Z,4.40
2017-09-05T04:22:02.807Z,4.40
2017-09-05T04:23:02.786Z,4.80
2017-09-05T04:24:02.764Z,4.80
2017-09-05T04:25:02.743Z,4.80
2017-09-05T04:26:02.718Z,4.90
2017-09-05T04:27:02.700Z,4.80
2017-09-05T04:28:02.679Z,4.90
2017-09-05T04:29:02.657Z,4.60
2017-09-05T04:30:02.637Z,4.70
2017-09-05T04:31:02.607Z,4.70
2017-09-05T04:32:02.584Z,4.90
2017-09-05T04:33:02.567Z,5.10
2017-09-05T04:34:02.545Z,5.30
2017-09-05T04:35:02.521Z,5.10
2017-09-05T04:36:02.500Z,5.40
2017-09-05T04:37:02.475Z,5.80
2017-09-05T04:38:02.456Z,5.30
2017-09-05T04:39:02.437Z,5.50
2017-09-05T04:40:02.408Z,5.90
2017-09-05T04:41:02.386Z,5.80
2017-09-05T04:42:02.365Z,6.00
2017-09-05T04:43:02.343Z,6.10
2017-09-05T04:44:02.321Z,5.60
2017-09-05T04:45:02.299Z,6.10
2017-09-05T04:46:02.271Z,5.90
2017-09-05T04:47:02.254Z,5.10
2017-09-05T04:48:02.232Z,5.30
2017-09-05T04:49:02.209Z,5.30
2017-09-05T04:50:02.186Z,6.10
2017-09-05T04:51:02.161Z,5.60
2017-09-05T04:52:02.141Z,5.30
2017-09-05T04:53:02.116Z,5.40
2017-09-05T04:54:02.096Z,5.20
2017-09-05T04:55:02.074Z,5.20
2017-09-05T04:56:02.051Z,4.70
2017-09-05T04:57:02.029Z,5.00
2017-09-05T04:58:02.007Z,4.80
2017-09-05T04:59:01.983Z,5.10
2017-09-05T05:00:01.960Z,5.40
2017-09-05T05:01:01.937Z,5.20
2017-09-05T05:02:01.917Z,6.10
2017-09-05T05:03:01.895Z,6.20
2017-09-05T05:04:01.874Z,6.10
2017-09-05T05:05:01.849Z,5.40
2017-09-05T05:06:01.828Z,5.50
2017-09-05T05:07:01.802Z,5.40
2017-09-05T05:08:01.780Z,5.80
2017-09-05T05:09:01.761Z,5.50
2017-09-05T05:10:01.739Z,5.30
2017-09-05T05:11:01.715Z,5.50
2017-09-05T05:12:01.691Z,5.20
2017-09-05T05:13:01.672Z,4.50
2017-09-05T05:14:01.645Z,5.20
2017-09-05T05:15:01.629Z,5.20
2017-09-05T05:16:01.604Z,5.60
2017-09-05T05:17:01.582Z,6.00
2017-09-05T05:18:01.559Z,4.70
2017-09-05T05:19:01.534Z,4.80
2017-09-05T05:20:01.515Z,5.00
2017-09-05T05:21:01.488Z,4.30
2017-09-05T05:22:01.464Z,5.40
2017-09-05T05:23:01.445Z,4.50
2017-09-05T05:24:01.422Z,5.00
2017-09-05T05:25:01.402Z,5.00
2017-09-05T05:26:01.382Z,4.70
2017-09-05T05:27:01.354Z,5.10
2017-09-05T05:28:01.335Z,4.90
2017-09-05T05:29:01.310Z,4.90
2017-09-05T05:30:01.290Z,4.70
2017-09-05T05:31:01.286Z,5.00
2017-09-05T05:32:01.245Z,4.70
2017-09-05T05:33:01.219Z,4.80
2017-09-05T05:34:01.197Z,4.80
2017-09-05T05:35:01.176Z,5.20
2017-09-05T05:36:01.154Z,4.70
2017-09-05T05:37:01.134Z,4.40
2017-09-05T05:38:01.107Z,5.50
2017-09-05T05:39:01.083Z,4.30
2017-09-05T05:40:01.063Z,4.30
2017-09-05T05:41:01.039Z,4.40
2017-09-05T05:42:01.015Z,4.60
2017-09-05T05:43:00.994Z,4.60
2017-09-05T05:44:00.972Z,4.30
2017-09-05T05:45:00.951Z,5.10
2017-09-05T05:46:00.930Z,4.40
2017-09-05T05:47:00.906Z,4.60
2017-09-05T05:48:00.884Z,4.60
2017-09-05T05:49:00.862Z,4.10
2017-09-05T05:50:00.838Z,4.40
2017-09-05T05:51:00.813Z,4.50
2017-09-05T05:52:00.795Z,4.30
2017-09-05T05:53:00.771Z,4.10
2017-09-05T05:54:00.750Z,4.70
2017-09-05T05:55:00.727Z,4.40
2017-09-05T05:56:00.707Z,4.10
2017-09-05T05:57:00.683Z,4.20
2017-09-05T05:58:00.659Z,4.30
2017-09-05T05:59:00.637Z,4.00
2017-09-05T06:00:00.612Z,4.40
2017-09-05T06:01:00.594Z,4.50
2017-09-05T06:02:00.570Z,4.40
2017-09-05T06:03:00.547Z,3.80
2017-09-05T06:04:00.522Z,4.30
2017-09-05T06:05:00.503Z,4.40
2017-09-05T06:06:00.476Z,4.20
2017-09-05T06:07:00.458Z,4.10
2017-09-05T06:08:00.434Z,4.10
2017-09-05T06:09:00.410Z,4.50
2017-09-05T06:10:00.386Z,4.60
2017-09-05T06:11:00.369Z,4.20
2017-09-05T06:12:00.343Z,3.90
2017-09-05T06:13:00.319Z,3.90
2017-09-05T06:14:00.297Z,4.10
2017-09-05T06:15:00.275Z,4.70
2017-09-05T06:16:00.250Z,4.40
2017-09-05T06:17:00.234Z,4.20
2017-09-05T06:18:00.207Z,4.00
2017-09-05T06:19:00.184Z,4.30
2017-09-05T06:20:00.165Z,4.30
2017-09-05T06:21:00.144Z,4.20
2017-09-05T06:22:00.119Z,4.20
2017-09-05T06:23:00.099Z,3.80
2017-09-05T06:24:00.073Z,4.40
2017-09-05T06:25:00.053Z,4.20
2017-09-05T06:26:00.028Z,4.30
2017-09-05T06:27:00.005Z,4.20
2017-09-05T06:27:59.982Z,4.10
2017-09-05T06:28:59.965Z,4.10
2017-09-05T06:29:59.951Z,4.30
2017-09-05T06:30:59.915Z,4.20
2017-09-05T06:31:59.895Z,3.90
2017-09-05T06:32:59.876Z,4.50
2017-09-05T06:33:59.848Z,4.20
2017-09-05T06:34:59.828Z,4.10
2017-09-05T06:35:59.804Z,4.60
2017-09-05T06:36:59.780Z,4.30
2017-09-05T06:37:59.762Z,4.50
2017-09-05T06:38:59.736Z,4.10
2017-09-05T06:39:59.712Z,4.30
2017-09-05T06:40:59.690Z,4.60
2017-09-05T06:41:59.668Z,4.30
2017-09-05T06:42:59.644Z,4.50
2017-09-05T06:43:59.625Z,4.20
2017-09-05T06:44:59.600Z,4.60
2017-09-05T06:45:59.578Z,4.60
2017-09-05T06:46:59.559Z,4.40
2017-09-05T06:47:59.532Z,4.10
2017-09-05T06:48:59.511Z,4.10
2017-09-05T06:49:59.487Z,4.60
2017-09-05T06:50:59.466Z,3.90
2017-09-05T06:51:59.446Z,4.40
2017-09-05T06:52:59.424Z,3.90
2017-09-05T06:53:59.400Z,4.10
2017-09-05T06:54:59.378Z,4.10
2017-09-05T06:55:59.352Z,4.40
2017-09-05T06:56:59.334Z,3.80
2017-09-05T06:57:59.308Z,3.90
2017-09-05T06:58:59.285Z,3.80
2017-09-05T06:59:59.267Z,4.10
2017-09-05T07:00:59.241Z,4.30
2017-09-05T07:01:59.219Z,4.00
2017-09-05T07:02:59.194Z,3.90
2017-09-05T07:03:59.181Z,4.00
2017-09-05T07:04:59.150Z,4.10
2017-09-05T07:05:59.128Z,3.90
2017-09-05T07:06:59.109Z,4.00
2017-09-05T07:07:59.084Z,3.70
2017-09-05T07:08:59.063Z,4.00
2017-09-05T07:09:59.039Z,3.80
2017-09-05T07:10:59.018Z,3.90
2017-09-05T07:11:58.993Z,4.10
2017-09-05T07:12:58.972Z,3.80
2017-09-05T07:13:58.947Z,3.70
2017-09-05T07:14:58.925Z,3.60
2017-09-05T07:15:58.906Z,3.70
2017-09-05T07:16:58.882Z,3.70
2017-09-05T07:17:58.859Z,3.90
2017-09-05T07:18:58.837Z,3.30
2017-09-05T07:19:58.813Z,3.60
2017-09-05T07:20:58.793Z,3.60
2017-09-05T07:21:58.767Z,4.10
2017-09-05T07:22:58.748Z,3.70
2017-09-05T07:23:58.724Z,3.20
2017-09-05T07:24:58.705Z,3.60
2017-09-05T07:25:58.678Z,3.70
2017-09-05T07:26:58.657Z,3.50
2017-09-05T07:27:58.632Z,3.80
2017-09-05T07:28:58.611Z,3.80
2017-09-05T07:29:58.591Z,4.20
2017-09-05T07:30:58.569Z,3.40
2017-09-05T07:31:58.544Z,3.90
2017-09-05T07:32:58.522Z,3.60
2017-09-05T07:33:58.503Z,3.40
2017-09-05T07:34:58.480Z,3.40
2017-09-05T07:35:58.455Z,3.40
2017-09-05T07:36:58.432Z,3.30
2017-09-05T07:37:58.444Z,3.30
2017-09-05T07:38:58.387Z,3.40
2017-09-05T07:39:58.368Z,3.20
2017-09-05T07:40:58.346Z,3.90
2017-09-05T07:41:58.320Z,3.20
2017-09-05T07:42:58.298Z,3.10
2017-09-05T07:43:58.279Z,3.30
2017-09-05T07:44:58.254Z,2.90
2017-09-05T07:45:58.233Z,3.00
2017-09-05T07:46:58.207Z,3.30
2017-09-05T07:47:58.187Z,3.20
2017-09-05T07:48:58.163Z,3.30
2017-09-05T07:49:58.143Z,3.10
2017-09-05T07:50:58.121Z,3.00
2017-09-05T07:51:58.098Z,2.90
2017-09-05T07:52:58.077Z,2.70
2017-09-05T07:53:58.049Z,3.30
2017-09-05T07:54:58.031Z,3.00
2017-09-05T07:55:58.006Z,2.50
2017-09-05T07:56:57.987Z,2.80
2017-09-05T07:57:57.966Z,3.80
2017-09-05T07:58:57.936Z,11.40
2017-09-05T07:59:57.919Z,31.10
2017-09-05T08:00:57.896Z,41.10
2017-09-05T08:01:57.873Z,90.10
2017-09-05T08:02:57.852Z,137.80
2017-09-05T08:03:57.830Z,126.70
2017-09-05T08:04:57.804Z,106.60
2017-09-05T08:05:57.784Z,118.90
2017-09-05T08:06:57.758Z,124.80
2017-09-05T08:07:57.741Z,131.90
2017-09-05T08:08:57.721Z,102.60
2017-09-05T08:09:57.929Z,84.70
2017-09-05T08:10:57.670Z,68.20
2017-09-05T08:11:57.652Z,50.00
2017-09-05T08:12:57.625Z,38.90
2017-09-05T08:13:57.802Z,29.70
2017-09-05T08:14:57.615Z,26.90
2017-09-05T08:15:57.562Z,28.00
2017-09-05T08:16:57.729Z,36.60
2017-09-05T08:17:57.515Z,30.40
2017-09-05T08:18:57.657Z,18.80
2017-09-05T08:19:57.471Z,14.50
2017-09-05T08:20:57.448Z,14.20
2017-09-05T08:21:57.430Z,10.70
2017-09-05T08:22:57.404Z,9.80
2017-09-05T08:23:57.383Z,8.70
2017-09-05T08:24:57.359Z,8.60
2017-09-05T08:25:57.336Z,8.00
2017-09-05T08:26:57.312Z,6.80
2017-09-05T08:27:57.290Z,7.20
2017-09-05T08:28:57.268Z,6.60
2017-09-05T08:29:57.249Z,6.30
2017-09-05T08:30:57.226Z,5.90
2017-09-05T08:31:57.200Z,5.40
2017-09-05T08:32:57.179Z,4.80
2017-09-05T08:33:57.159Z,5.10
2017-09-05T08:34:57.132Z,4.80
2017-09-05T08:35:57.141Z,4.60
2017-09-05T08:36:57.091Z,4.50
2017-09-05T08:37:57.065Z,4.30
2017-09-05T08:38:57.043Z,4.70
2017-09-05T08:39:57.024Z,4.20
2017-09-05T08:40:57.123Z,4.10
2017-09-05T08:41:56.981Z,4.50
2017-09-05T08:42:57.158Z,4.40
2017-09-05T08:43:56.936Z,3.90
2017-09-05T08:44:56.910Z,4.50
2017-09-05T08:45:56.887Z,4.10
2017-09-05T08:46:56.870Z,4.30
2017-09-05T08:47:56.848Z,4.10
2017-09-05T08:48:56.824Z,4.10
2017-09-05T08:49:56.799Z,4.30
2017-09-05T08:50:56.781Z,4.40
2017-09-05T08:51:56.758Z,4.20
2017-09-05T08:52:56.733Z,4.20
2017-09-05T08:53:56.716Z,7.90
2017-09-05T08:54:56.691Z,7.90
2017-09-05T08:55:57.072Z,7.80
2017-09-05T08:56:56.859Z,8.90
2017-09-05T08:57:56.623Z,8.70
2017-09-05T08:58:56.602Z,6.10
2017-09-05T08:59:56.577Z,5.90
2017-09-05T09:00:56.558Z,6.00
2017-09-05T09:01:56.532Z,6.10
2017-09-05T09:02:56.512Z,6.40
2017-09-05T09:03:56.487Z,5.40
2017-09-05T09:04:56.467Z,4.70
2017-09-05T09:05:56.446Z,4.80
2017-09-05T09:06:56.429Z,5.50
2017-09-05T09:07:56.399Z,5.00
2017-09-05T09:08:56.376Z,4.80
2017-09-05T09:09:56.354Z,4.80
2017-09-05T09:10:56.334Z,4.20
2017-09-05T09:11:56.323Z,4.90
2017-09-05T09:12:56.292Z,4.70
2017-09-05T09:13:56.267Z,4.50
2017-09-05T09:14:56.245Z,4.20
2017-09-05T09:15:56.223Z,5.80
2017-09-05T09:16:56.203Z,5.20
2017-09-05T09:17:56.176Z,5.10
2017-09-05T09:18:56.154Z,4.60
2017-09-05T09:19:56.139Z,5.80
2017-09-05T09:20:56.114Z,5.70
2017-09-05T09:21:56.092Z,5.40
2017-09-05T09:22:56.067Z,6.40
2017-09-05T09:23:56.047Z,6.30
2017-09-05T09:24:56.023Z,5.90
2017-09-05T09:25:56.004Z,6.30
2017-09-05T09:26:55.981Z,6.10
2017-09-05T09:27:55.956Z,5.80
2017-09-05T09:28:55.939Z,5.30
2017-09-05T09:29:55.915Z,5.50
2017-09-05T09:30:55.892Z,5.70
2017-09-05T09:31:55.869Z,5.80
2017-09-05T09:32:55.846Z,5.90
2017-09-05T09:33:55.826Z,5.50
2017-09-05T09:34:55.800Z,4.90
2017-09-05T09:35:55.779Z,5.20
2017-09-05T09:36:55.760Z,5.30
2017-09-05T09:37:55.734Z,5.10
2017-09-05T09:38:55.719Z,5.50
2017-09-05T09:39:55.695Z,4.80
2017-09-05T09:40:55.671Z,4.50
2017-09-05T09:41:55.648Z,5.10
2017-09-05T09:42:55.625Z,5.00
2017-09-05T09:43:55.607Z,5.20
2017-09-05T09:44:55.582Z,5.10
2017-09-05T09:45:55.558Z,4.90
2017-09-05T09:46:55.537Z,5.10
2017-09-05T09:47:55.513Z,5.20
2017-09-05T09:48:55.492Z,5.10
2017-09-05T09:49:55.475Z,4.90
2017-09-05T09:50:55.450Z,4.70
2017-09-05T09:51:55.429Z,4.70
2017-09-05T09:52:55.408Z,4.60
2017-09-05T09:53:55.382Z,4.80
2017-09-05T09:54:55.365Z,5.00
2017-09-05T09:55:55.343Z,4.60
2017-09-05T09:56:55.320Z,4.40
2017-09-05T09:57:55.296Z,4.70
2017-09-05T09:58:55.272Z,5.10
2017-09-05T09:59:55.252Z,4.30
2017-09-05T10:00:55.227Z,4.30
2017-09-05T10:01:55.206Z,4.70
2017-09-05T10:02:55.187Z,4.40
2017-09-05T10:03:55.165Z,4.70
2017-09-05T10:04:55.144Z,5.30
2017-09-05T10:05:55.120Z,4.50
2017-09-05T10:06:55.098Z,4.20
2017-09-05T10:07:55.075Z,4.40
2017-09-05T10:08:55.057Z,4.70
2017-09-05T10:09:55.032Z,4.90
2017-09-05T10:10:55.011Z,4.80
2017-09-05T10:11:54.988Z,4.80
2017-09-05T10:12:54.968Z,5.00
2017-09-05T10:13:54.945Z,4.80
2017-09-05T10:14:54.923Z,4.50
2017-09-05T10:15:54.898Z,4.50
2017-09-05T10:16:54.876Z,4.60
2017-09-05T10:17:54.854Z,4.20
2017-09-05T10:18:54.833Z,4.40
2017-09-05T10:19:54.809Z,4.20
2017-09-05T10:20:54.789Z,4.70
2017-09-05T10:21:54.772Z,4.40
2017-09-05T10:22:54.748Z,4.60
2017-09-05T10:23:54.724Z,4.20
2017-09-05T10:24:54.701Z,4.40
2017-09-05T10:25:54.676Z,4.10
2017-09-05T10:26:54.656Z,4.30
2017-09-05T10:27:54.637Z,4.20
2017-09-05T10:28:54.612Z,4.90
2017-09-05T10:29:54.590Z,4.40
2017-09-05T10:30:54.570Z,4.80
2017-09-05T10:31:54.548Z,3.90
2017-09-05T10:32:54.528Z,4.40
2017-09-05T10:33:54.502Z,4.30
2017-09-05T10:34:54.485Z,4.50
2017-09-05T10:35:54.462Z,4.20
2017-09-05T10:36:54.437Z,4.40
2017-09-05T10:37:54.416Z,4.10
2017-09-05T10:38:54.392Z,4.70
2017-09-05T10:39:54.374Z,4.60
2017-09-05T10:40:54.352Z,4.70
2017-09-05T10:41:54.330Z,5.30
2017-09-05T10:42:54.304Z,5.20
2017-09-05T10:43:54.284Z,4.50
2017-09-05T10:44:54.265Z,4.70
2017-09-05T10:45:54.240Z,5.00
2017-09-05T10:46:54.219Z,4.40
2017-09-05T10:47:54.195Z,5.00
2017-09-05T10:48:54.178Z,5.00
2017-09-05T10:49:54.156Z,5.10
2017-09-05T10:50:54.129Z,4.40
2017-09-05T10:51:54.108Z,5.00
2017-09-05T10:52:54.088Z,4.50
2017-09-05T10:53:54.068Z,4.80
2017-09-05T10:54:54.045Z,4.50
2017-09-05T10:55:54.023Z,4.10
2017-09-05T10:56:54.002Z,4.80
2017-09-05T10:57:53.980Z,4.60
2017-09-05T10:58:53.957Z,4.60
2017-09-05T10:59:53.932Z,4.30
2017-09-05T11:00:53.911Z,4.60
2017-09-05T11:01:53.888Z,4.50
2017-09-05T11:02:53.868Z,4.80
2017-09-05T11:03:53.844Z,4.50
2017-09-05T11:04:53.827Z,4.30
2017-09-05T11:05:53.804Z,4.90
2017-09-05T11:06:53.779Z,4.60
2017-09-05T11:07:53.761Z,4.20
2017-09-05T11:08:53.735Z,4.10
2017-09-05T11:09:53.712Z,4.40
2017-09-05T11:10:53.692Z,4.70
2017-09-05T11:11:53.669Z,4.50
2017-09-05T11:12:53.648Z,4.00
2017-09-05T11:13:53.628Z,4.80
2017-09-05T11:14:53.603Z,4.20
2017-09-05T11:15:53.587Z,4.00
2017-09-05T11:16:53.562Z,4.00
2017-09-05T11:17:53.538Z,4.40
2017-09-05T11:18:53.520Z,4.10
2017-09-05T11:19:53.498Z,4.20
2017-09-05T11:20:53.476Z,3.90
2017-09-05T11:21:53.453Z,4.50
2017-09-05T11:22:53.433Z,4.50
2017-09-05T11:23:53.406Z,3.70
2017-09-05T11:24:53.385Z,4.50
2017-09-05T11:25:53.364Z,4.00
2017-09-05T11:26:53.344Z,4.30
2017-09-05T11:27:53.320Z,3.50
2017-09-05T11:28:53.297Z,4.90
2017-09-05T11:29:53.281Z,4.60
2017-09-05T11:30:53.257Z,5.20
2017-09-05T11:31:53.236Z,4.10
2017-09-05T11:32:53.211Z,4.00
2017-09-05T11:33:53.190Z,3.80
2017-09-05T11:34:53.165Z,4.20
2017-09-05T11:35:53.148Z,4.40
2017-09-05T11:36:53.122Z,4.40
2017-09-05T11:37:53.103Z,4.50
2017-09-05T11:38:53.079Z,4.50
2017-09-05T11:39:53.060Z,4.40
2017-09-05T11:40:53.039Z,4.50
2017-09-05T11:41:53.017Z,4.30
2017-09-05T11:42:53.000Z,4.30
2017-09-05T11:43:52.970Z,4.20
2017-09-05T11:44:52.951Z,4.00
2017-09-05T11:45:52.929Z,4.30
2017-09-05T11:46:52.907Z,3.90
2017-09-05T11:47:52.885Z,3.80
2017-09-05T11:48:52.860Z,4.30
2017-09-05T11:49:52.838Z,4.20
2017-09-05T11:50:52.820Z,4.10
2017-09-05T11:51:52.800Z,3.80
2017-09-05T11:52:52.773Z,4.10
2017-09-05T11:53:52.751Z,3.80
2017-09-05T11:54:52.729Z,4.30
2017-09-05T11:55:52.710Z,3.90
2017-09-05T11:56:52.690Z,3.90
2017-09-05T11:57:52.668Z,4.10
2017-09-05T11:58:52.642Z,3.80
2017-09-05T11:59:52.621Z,4.30
2017-09-05T12:00:52.601Z,4.10
2017-09-05T12:01:52.578Z,4.40
2017-09-05T12:02:52.559Z,4.00
2017-09-05T12:03:52.537Z,4.00
2017-09-05T12:04:52.515Z,4.10
2017-09-05T12:05:52.492Z,4.50
2017-09-05T12:06:52.469Z,4.10
2017-09-05T12:07:52.453Z,4.00
2017-09-05T12:08:52.428Z,4.00
2017-09-05T12:09:52.408Z,4.00
2017-09-05T12:10:52.386Z,3.80
2017-09-05T12:11:52.360Z,4.30
2017-09-05T12:12:52.341Z,4.40
2017-09-05T12:13:52.316Z,4.40
2017-09-05T12:14:52.296Z,3.70
2017-09-05T12:15:52.271Z,4.60
2017-09-05T12:16:52.250Z,4.20
2017-09-05T12:17:52.227Z,4.40
2017-09-05T12:18:52.206Z,3.60
2017-09-05T12:19:52.188Z,3.80
2017-09-05T12:20:52.164Z,4.20
2017-09-05T12:21:52.143Z,3.80
2017-09-05T12:22:52.123Z,4.10
2017-09-05T12:23:52.101Z,3.60
2017-09-05T12:24:52.080Z,3.60
2017-09-05T12:25:52.057Z,4.10
2017-09-05T12:26:52.032Z,3.40
2017-09-05T12:27:52.013Z,3.70
2017-09-05T12:28:51.993Z,3.90
2017-09-05T12:29:51.969Z,3.60
2017-09-05T12:30:51.944Z,3.80
2017-09-05T12:31:51.928Z,3.90
2017-09-05T12:32:51.903Z,3.70
2017-09-05T12:33:51.882Z,3.60
2017-09-05T12:34:51.858Z,3.70
2017-09-05T12:35:51.836Z,3.90
2017-09-05T12:36:51.814Z,3.90
2017-09-05T12:37:51.797Z,4.00
2017-09-05T12:38:51.770Z,4.10
2017-09-05T12:39:51.749Z,3.50
2017-09-05T12:40:51.727Z,4.00
2017-09-05T12:41:51.710Z,3.60
2017-09-05T12:42:51.686Z,3.40
2017-09-05T12:43:51.663Z,3.40
2017-09-05T12:44:51.644Z,4.20
2017-09-05T12:45:51.620Z,3.60
2017-09-05T12:46:51.598Z,3.30
2017-09-05T12:47:51.574Z,3.80
2017-09-05T12:48:51.557Z,3.70
2017-09-05T12:49:51.530Z,3.80
2017-09-05T12:50:51.509Z,3.40
2017-09-05T12:51:51.485Z,4.10
2017-09-05T12:52:51.465Z,4.00
2017-09-05T12:53:51.447Z,3.40
2017-09-05T12:54:51.423Z,3.80
2017-09-05T12:55:51.403Z,3.90
2017-09-05T12:56:51.387Z,3.40
2017-09-05T12:57:51.359Z,3.40
2017-09-05T12:58:51.340Z,4.30
2017-09-05T12:59:51.317Z,4.00
2017-09-05T13:00:51.301Z,4.10
2017-09-05T13:01:51.271Z,3.80
2017-09-05T13:02:51.247Z,3.30
2017-09-05T13:03:51.226Z,4.10
2017-09-05T13:04:51.207Z,3.70
2017-09-05T13:05:51.182Z,3.80
2017-09-05T13:06:51.164Z,4.00
2017-09-05T13:07:51.140Z,3.40
2017-09-05T13:08:51.117Z,3.50
2017-09-05T13:09:51.097Z,3.40
2017-09-05T13:10:51.076Z,3.80
2017-09-05T13:11:51.053Z,3.60